sensor_id;sensor_type;location;lat;lon;timestamp;temperature;humidity
6174;DHT22;3120;48.796;9.796;2023-02-26T00:01:14;-0.20;99.90
6174;DHT22;3120;48.796;9.796;2023-02-26T00:03:40;-0.20;99.90
6174;DHT22;3120;48.796;9.796;2023-02-26T00:06:06;-0.20;99.90
6174;DHT22;3120;48.796;9.796;2023-02-26T00:08:32;-0.20;99.90
6174;DHT22;3120;48.796;9.796;2023-02-26T00:10:58;-0.10;99.90
6174;DHT22;3120;48.796;9.796;2023-02-26T00:13:27;-0.40;99.90
6174;DHT22;3120;48.796;9.796;2023-02-26T00:15:59;-0.20;99.90
6174;DHT22;3120;48.796;9.796;2023-02-26T00:18:25;-0.30;99.90
6174;DHT22;3120;48.796;9.796;2023-02-26T00:20:54;-0.40;99.90
6174;DHT22;3120;48.796;9.796;2023-02-26T00:23:20;-0.40;99.90
6174;DHT22;3120;48.796;9.796;2023-02-26T00:25:46;-0.40;99.90
6174;DHT22;3120;48.796;9.796;2023-02-26T00:28:13;-0.40;99.90
6174;DHT22;3120;48.796;9.796;2023-02-26T00:30:39;-0.50;99.90
6174;DHT22;3120;48.796;9.796;2023-02-26T00:33:08;-0.50;99.90
6174;DHT22;3120;48.796;9.796;2023-02-26T00:35:43;-0.90;99.90
6174;DHT22;3120;48.796;9.796;2023-02-26T00:38:11;0.40;99.90
6174;DHT22;3120;48.796;9.796;2023-02-26T00:40:48;0.30;99.90
6174;DHT22;3120;48.796;9.796;2023-02-26T00:43:24;-0.50;99.90
6174;DHT22;3120;48.796;9.796;2023-02-26T00:51:09;-0.60;99.90
6174;DHT22;3120;48.796;9.796;2023-02-26T00:53:47;-0.60;99.90
6174;DHT22;3120;48.796;9.796;2023-02-26T00:56:14;-0.70;99.90
6174;DHT22;3120;48.796;9.796;2023-02-26T00:58:40;-0.70;99.90
6174;DHT22;3120;48.796;9.796;2023-02-26T01:01:06;-0.70;99.90
6174;DHT22;3120;48.796;9.796;2023-02-26T01:03:32;-0.80;99.90
6174;DHT22;3120;48.796;9.796;2023-02-26T01:05:57;-0.80;99.90
6174;DHT22;3120;48.796;9.796;2023-02-26T01:08:30;-0.80;99.90
6174;DHT22;3120;48.796;9.796;2023-02-26T01:11:01;-1.00;99.90
6174;DHT22;3120;48.796;9.796;2023-02-26T01:13:26;-0.90;99.90
6174;DHT22;3120;48.796;9.796;2023-02-26T01:16:01;-1.00;99.90
6174;DHT22;3120;48.796;9.796;2023-02-26T01:18:39;-1.10;99.90
6174;DHT22;3120;48.796;9.796;2023-02-26T01:21:10;-0.30;99.90
6174;DHT22;3120;48.796;9.796;2023-02-26T01:23:44;-0.60;99.90
6174;DHT22;3120;48.796;9.796;2023-02-26T01:26:22;-0.30;99.90
6174;DHT22;3120;48.796;9.796;2023-02-26T01:28:51;-1.20;99.90
6174;DHT22;3120;48.796;9.796;2023-02-26T01:31:42;-1.10;99.90
6174;DHT22;3120;48.796;9.796;2023-02-26T01:34:40;-1.30;99.90
6174;DHT22;3120;48.796;9.796;2023-02-26T01:40:17;-1.20;99.90
6174;DHT22;3120;48.796;9.796;2023-02-26T01:42:51;-1.10;99.90
6174;DHT22;3120;48.796;9.796;2023-02-26T01:45:44;-1.00;99.90
6174;DHT22;3120;48.796;9.796;2023-02-26T01:48:37;-0.40;99.90
6174;DHT22;3120;48.796;9.796;2023-02-26T01:51:06;-1.10;99.90
6174;DHT22;3120;48.796;9.796;2023-02-26T01:53:31;-1.20;99.90
6174;DHT22;3120;48.796;9.796;2023-02-26T01:56:00;-1.20;99.90
6174;DHT22;3120;48.796;9.796;2023-02-26T01:58:31;0.10;99.90
6174;DHT22;3120;48.796;9.796;2023-02-26T02:00:57;-0.40;99.90
6174;DHT22;3120;48.796;9.796;2023-02-26T02:03:36;-0.60;99.90
6174;DHT22;3120;48.796;9.796;2023-02-26T02:06:13;-1.30;99.90
6174;DHT22;3120;48.796;9.796;2023-02-26T02:08:43;-0.50;99.90
6174;DHT22;3120;48.796;9.796;2023-02-26T02:11:10;-1.40;99.90
6174;DHT22;3120;48.796;9.796;2023-02-26T02:19:34;-1.30;99.90
6174;DHT22;3120;48.796;9.796;2023-02-26T02:22:39;-1.30;99.90
6174;DHT22;3120;48.796;9.796;2023-02-26T02:25:30;-1.40;99.90
6174;DHT22;3120;48.796;9.796;2023-02-26T02:31:04;-1.50;99.90
6174;DHT22;3120;48.796;9.796;2023-02-26T02:33:46;-1.50;99.90
6174;DHT22;3120;48.796;9.796;2023-02-26T02:36:33;-1.60;99.90
6174;DHT22;3120;48.796;9.796;2023-02-26T02:39:05;-1.60;99.90
6174;DHT22;3120;48.796;9.796;2023-02-26T02:41:47;-1.70;99.90
6174;DHT22;3120;48.796;9.796;2023-02-26T02:44:17;-1.30;99.90
6174;DHT22;3120;48.796;9.796;2023-02-26T02:46:46;-0.90;99.90
6174;DHT22;3120;48.796;9.796;2023-02-26T02:49:22;-0.90;99.90
6174;DHT22;3120;48.796;9.796;2023-02-26T02:52:04;-0.90;99.90
6174;DHT22;3120;48.796;9.796;2023-02-26T02:54:46;-1.70;99.90
6174;DHT22;3120;48.796;9.796;2023-02-26T02:57:21;-1.60;99.90
6174;DHT22;3120;48.796;9.796;2023-02-26T02:59:53;-1.70;84.80
6174;DHT22;3120;48.796;9.796;2023-02-26T03:02:27;-0.40;99.90
6174;DHT22;3120;48.796;9.796;2023-02-26T03:04:57;-1.00;99.90
6174;DHT22;3120;48.796;9.796;2023-02-26T03:07:24;-2.20;99.90
6174;DHT22;3120;48.796;9.796;2023-02-26T03:09:49;-0.80;99.90
6174;DHT22;3120;48.796;9.796;2023-02-26T03:12:15;-0.70;99.90
6174;DHT22;3120;48.796;9.796;2023-02-26T03:14:41;-1.70;99.90
6174;DHT22;3120;48.796;9.796;2023-02-26T03:17:18;-1.30;99.90
6174;DHT22;3120;48.796;9.796;2023-02-26T03:22:42;-2.80;99.90
6174;DHT22;3120;48.796;9.796;2023-02-26T03:25:23;-1.80;99.90
6174;DHT22;3120;48.796;9.796;2023-02-26T03:28:07;-1.70;99.90
6174;DHT22;3120;48.796;9.796;2023-02-26T03:30:43;-1.70;99.90
6174;DHT22;3120;48.796;9.796;2023-02-26T03:36:03;-1.80;99.90
6174;DHT22;3120;48.796;9.796;2023-02-26T03:41:07;-1.90;99.90
6174;DHT22;3120;48.796;9.796;2023-02-26T03:43:57;-1.90;99.90
6174;DHT22;3120;48.796;9.796;2023-02-26T03:46:39;-1.90;99.90
6174;DHT22;3120;48.796;9.796;2023-02-26T03:49:10;-2.00;99.90
6174;DHT22;3120;48.796;9.796;2023-02-26T03:51:38;-2.10;99.90
6174;DHT22;3120;48.796;9.796;2023-02-26T03:54:23;-2.30;99.90
6174;DHT22;3120;48.796;9.796;2023-02-26T03:56:50;-2.20;99.90
6174;DHT22;3120;48.796;9.796;2023-02-26T03:59:16;-2.30;99.90
6174;DHT22;3120;48.796;9.796;2023-02-26T04:02:04;-2.40;99.90
6174;DHT22;3120;48.796;9.796;2023-02-26T04:04:52;-2.30;99.90
6174;DHT22;3120;48.796;9.796;2023-02-26T04:07:19;-2.30;99.90
6174;DHT22;3120;48.796;9.796;2023-02-26T04:09:47;-2.30;99.90
6174;DHT22;3120;48.796;9.796;2023-02-26T04:12:13;-2.40;99.90
6174;DHT22;3120;48.796;9.796;2023-02-26T04:14:39;-2.50;99.90
6174;DHT22;3120;48.796;9.796;2023-02-26T04:17:05;-2.50;99.90
6174;DHT22;3120;48.796;9.796;2023-02-26T04:19:31;-2.50;99.90
6174;DHT22;3120;48.796;9.796;2023-02-26T04:21:57;-2.60;99.90
6174;DHT22;3120;48.796;9.796;2023-02-26T04:24:23;-1.60;99.90
6174;DHT22;3120;48.796;9.796;2023-02-26T04:26:48;-2.50;99.90
6174;DHT22;3120;48.796;9.796;2023-02-26T04:29:14;-1.30;99.90
6174;DHT22;3120;48.796;9.796;2023-02-26T04:31:40;-2.40;99.90
6174;DHT22;3120;48.796;9.796;2023-02-26T04:34:06;-1.70;99.90
6174;DHT22;3120;48.796;9.796;2023-02-26T04:36:32;-2.40;99.90
6174;DHT22;3120;48.796;9.796;2023-02-26T04:38:58;-2.50;99.90
6174;DHT22;3120;48.796;9.796;2023-02-26T04:41:24;-2.50;99.90
6174;DHT22;3120;48.796;9.796;2023-02-26T04:44:26;-2.30;99.90
6174;DHT22;3120;48.796;9.796;2023-02-26T04:46:51;-2.70;99.90
6174;DHT22;3120;48.796;9.796;2023-02-26T04:49:17;-1.90;99.90
6174;DHT22;3120;48.796;9.796;2023-02-26T04:51:46;-2.20;99.90
6174;DHT22;3120;48.796;9.796;2023-02-26T04:54:11;-1.70;99.90
6174;DHT22;3120;48.796;9.796;2023-02-26T04:56:37;-2.00;99.90
6174;DHT22;3120;48.796;9.796;2023-02-26T04:59:03;-3.20;99.90
6174;DHT22;3120;48.796;9.796;2023-02-26T05:01:29;-2.40;99.90
6174;DHT22;3120;48.796;9.796;2023-02-26T05:03:55;-2.50;99.90
6174;DHT22;3120;48.796;9.796;2023-02-26T05:06:21;-2.40;99.90
6174;DHT22;3120;48.796;9.796;2023-02-26T05:08:49;-3.90;99.90
6174;DHT22;3120;48.796;9.796;2023-02-26T05:11:15;-2.60;99.90
6174;DHT22;3120;48.796;9.796;2023-02-26T05:13:43;-3.30;99.90
6174;DHT22;3120;48.796;9.796;2023-02-26T05:16:09;-1.90;99.90
6174;DHT22;3120;48.796;9.796;2023-02-26T05:18:35;-2.40;99.90
6174;DHT22;3120;48.796;9.796;2023-02-26T05:21:01;-2.30;99.90
6174;DHT22;3120;48.796;9.796;2023-02-26T05:23:33;-2.20;99.90
6174;DHT22;3120;48.796;9.796;2023-02-26T05:25:59;-3.40;99.90
6174;DHT22;3120;48.796;9.796;2023-02-26T05:28:25;-2.20;99.90
6174;DHT22;3120;48.796;9.796;2023-02-26T05:30:51;-3.00;99.90
6174;DHT22;3120;48.796;9.796;2023-02-26T05:33:17;-2.90;99.90
6174;DHT22;3120;48.796;9.796;2023-02-26T05:35:44;-1.80;99.90
6174;DHT22;3120;48.796;9.796;2023-02-26T05:38:12;-3.10;99.90
6174;DHT22;3120;48.796;9.796;2023-02-26T05:40:38;-2.50;99.90
6174;DHT22;3120;48.796;9.796;2023-02-26T05:43:04;-2.00;99.90
6174;DHT22;3120;48.796;9.796;2023-02-26T05:45:29;-2.80;99.90
6174;DHT22;3120;48.796;9.796;2023-02-26T05:48:01;-3.10;99.90
6174;DHT22;3120;48.796;9.796;2023-02-26T05:50:50;-2.00;99.90
6174;DHT22;3120;48.796;9.796;2023-02-26T05:53:18;-1.50;99.90
6174;DHT22;3120;48.796;9.796;2023-02-26T05:55:46;-1.50;99.90
6174;DHT22;3120;48.796;9.796;2023-02-26T05:58:16;-2.50;99.90
6174;DHT22;3120;48.796;9.796;2023-02-26T06:00:44;-1.90;99.90
6174;DHT22;3120;48.796;9.796;2023-02-26T06:03:10;-1.90;99.90
6174;DHT22;3120;48.796;9.796;2023-02-26T06:05:36;-2.60;99.90
6174;DHT22;3120;48.796;9.796;2023-02-26T06:08:03;-2.70;99.90
6174;DHT22;3120;48.796;9.796;2023-02-26T06:10:30;-1.90;99.90
6174;DHT22;3120;48.796;9.796;2023-02-26T06:12:58;-2.50;99.90
6174;DHT22;3120;48.796;9.796;2023-02-26T06:15:24;-2.40;99.90
6174;DHT22;3120;48.796;9.796;2023-02-26T06:17:50;-1.50;99.90
6174;DHT22;3120;48.796;9.796;2023-02-26T06:20:17;-1.70;99.90
6174;DHT22;3120;48.796;9.796;2023-02-26T06:22:43;-2.30;99.90
6174;DHT22;3120;48.796;9.796;2023-02-26T06:25:13;-1.70;99.90
6174;DHT22;3120;48.796;9.796;2023-02-26T06:27:38;-1.60;99.90
6174;DHT22;3120;48.796;9.796;2023-02-26T06:30:05;-2.10;99.90
6174;DHT22;3120;48.796;9.796;2023-02-26T06:46:18;-1.80;99.90
6174;DHT22;3120;48.796;9.796;2023-02-26T06:56:51;-1.60;99.90
6174;DHT22;3120;48.796;9.796;2023-02-26T07:00:10;-1.70;99.90
6174;DHT22;3120;48.796;9.796;2023-02-26T07:17:26;-1.20;99.90
6174;DHT22;3120;48.796;9.796;2023-02-26T07:20:11;-1.30;99.90
6174;DHT22;3120;48.796;9.796;2023-02-26T07:23:00;-1.40;99.90
6174;DHT22;3120;48.796;9.796;2023-02-26T07:25:44;-1.30;99.90
6174;DHT22;3120;48.796;9.796;2023-02-26T07:28:18;-1.30;99.90
6174;DHT22;3120;48.796;9.796;2023-02-26T07:37:52;-1.30;99.90
6174;DHT22;3120;48.796;9.796;2023-02-26T07:40:53;-1.20;99.90
6174;DHT22;3120;48.796;9.796;2023-02-26T07:43:25;-1.10;99.90
6174;DHT22;3120;48.796;9.796;2023-02-26T07:45:51;1.40;99.90
6174;DHT22;3120;48.796;9.796;2023-02-26T07:48:52;-1.00;99.90
6174;DHT22;3120;48.796;9.796;2023-02-26T07:51:21;-0.90;99.90
6174;DHT22;3120;48.796;9.796;2023-02-26T07:53:59;0.70;99.90
6174;DHT22;3120;48.796;9.796;2023-02-26T07:59:58;-0.60;39.00
6174;DHT22;3120;48.796;9.796;2023-02-26T08:02:58;2.30;49.80
6174;DHT22;3120;48.796;9.796;2023-02-26T08:12:19;-0.50;56.50
6174;DHT22;3120;48.796;9.796;2023-02-26T08:15:06;-0.40;39.20
6174;DHT22;3120;48.796;9.796;2023-02-26T08:17:32;-0.50;11.80
6174;DHT22;3120;48.796;9.796;2023-02-26T08:19:58;-0.40;39.10
6174;DHT22;3120;48.796;9.796;2023-02-26T08:22:57;-0.30;22.50
6174;DHT22;3120;48.796;9.796;2023-02-26T08:33:21;-0.20;11.00
6174;DHT22;3120;48.796;9.796;2023-02-26T08:35:48;-0.10;4.00
6174;DHT22;3120;48.796;9.796;2023-02-26T08:38:14;1.10;30.00
6174;DHT22;3120;48.796;9.796;2023-02-26T08:40:40;-0.10;18.40
6174;DHT22;3120;48.796;9.796;2023-02-26T08:43:06;0.00;1.00
6174;DHT22;3120;48.796;9.796;2023-02-26T08:45:31;-0.10;1.00
6174;DHT22;3120;48.796;9.796;2023-02-26T08:47:57;0.60;1.00
6174;DHT22;3120;48.796;9.796;2023-02-26T08:50:24;0.90;1.00
6174;DHT22;3120;48.796;9.796;2023-02-26T08:52:50;0.20;1.00
6174;DHT22;3120;48.796;9.796;2023-02-26T08:55:15;0.30;1.00
6174;DHT22;3120;48.796;9.796;2023-02-26T08:57:41;0.40;1.00
6174;DHT22;3120;48.796;9.796;2023-02-26T09:00:07;1.40;1.00
6174;DHT22;3120;48.796;9.796;2023-02-26T09:02:37;0.60;1.00
6174;DHT22;3120;48.796;9.796;2023-02-26T09:05:03;0.70;1.00
6174;DHT22;3120;48.796;9.796;2023-02-26T09:07:29;0.60;1.00
6174;DHT22;3120;48.796;9.796;2023-02-26T09:09:54;0.60;1.00
6174;DHT22;3120;48.796;9.796;2023-02-26T09:12:20;0.60;99.90
6174;DHT22;3120;48.796;9.796;2023-02-26T09:14:46;0.40;1.00
6174;DHT22;3120;48.796;9.796;2023-02-26T09:20:33;0.70;1.00
6174;DHT22;3120;48.796;9.796;2023-02-26T09:22:59;0.60;99.90
6174;DHT22;3120;48.796;9.796;2023-02-26T09:25:25;0.40;1.00
6174;DHT22;3120;48.796;9.796;2023-02-26T09:27:50;0.30;1.00
6174;DHT22;3120;48.796;9.796;2023-02-26T09:30:16;0.30;1.00
6174;DHT22;3120;48.796;9.796;2023-02-26T09:32:42;0.20;1.00
6174;DHT22;3120;48.796;9.796;2023-02-26T09:35:08;0.30;1.00
6174;DHT22;3120;48.796;9.796;2023-02-26T09:37:34;0.40;1.00
6174;DHT22;3120;48.796;9.796;2023-02-26T09:39:59;0.40;1.00
6174;DHT22;3120;48.796;9.796;2023-02-26T09:45:17;0.30;1.00
6174;DHT22;3120;48.796;9.796;2023-02-26T09:47:50;0.20;1.00
6174;DHT22;3120;48.796;9.796;2023-02-26T09:55:30;0.30;1.00
6174;DHT22;3120;48.796;9.796;2023-02-26T09:57:59;0.40;1.00
6174;DHT22;3120;48.796;9.796;2023-02-26T10:03:32;0.50;1.00
6174;DHT22;3120;48.796;9.796;2023-02-26T10:06:25;0.60;1.00
6174;DHT22;3120;48.796;9.796;2023-02-26T10:11:29;0.60;1.00
6174;DHT22;3120;48.796;9.796;2023-02-26T10:14:01;0.50;1.00
6174;DHT22;3120;48.796;9.796;2023-02-26T10:16:32;0.60;1.00
6174;DHT22;3120;48.796;9.796;2023-02-26T10:19:05;0.70;1.00
6174;DHT22;3120;48.796;9.796;2023-02-26T10:24:14;0.90;99.90
6174;DHT22;3120;48.796;9.796;2023-02-26T10:26:50;0.80;1.00
6174;DHT22;3120;48.796;9.796;2023-02-26T10:29:35;1.00;1.00
6174;DHT22;3120;48.796;9.796;2023-02-26T10:34:55;1.10;99.90
6174;DHT22;3120;48.796;9.796;2023-02-26T10:40:34;0.90;99.90
6174;DHT22;3120;48.796;9.796;2023-02-26T10:43:23;0.90;99.90
6174;DHT22;3120;48.796;9.796;2023-02-26T10:51:48;1.10;99.90
6174;DHT22;3120;48.796;9.796;2023-02-26T10:56:57;1.00;1.00
6174;DHT22;3120;48.796;9.796;2023-02-26T10:59:23;1.10;99.90
6174;DHT22;3120;48.796;9.796;2023-02-26T11:01:50;1.10;99.90
6174;DHT22;3120;48.796;9.796;2023-02-26T11:04:21;1.10;99.90
6174;DHT22;3120;48.796;9.796;2023-02-26T11:09:24;3.20;1.00
6174;DHT22;3120;48.796;9.796;2023-02-26T11:11:53;1.50;99.90
6174;DHT22;3120;48.796;9.796;2023-02-26T11:14:20;1.70;1.00
6174;DHT22;3120;48.796;9.796;2023-02-26T11:17:11;1.40;1.00
6174;DHT22;3120;48.796;9.796;2023-02-26T11:19:43;1.30;1.00
6174;DHT22;3120;48.796;9.796;2023-02-26T11:22:13;1.50;1.00
6174;DHT22;3120;48.796;9.796;2023-02-26T11:24:41;1.70;1.00
6174;DHT22;3120;48.796;9.796;2023-02-26T11:27:21;1.60;1.00
6174;DHT22;3120;48.796;9.796;2023-02-26T11:30:03;1.60;1.00
6174;DHT22;3120;48.796;9.796;2023-02-26T11:32:35;1.60;1.00
6174;DHT22;3120;48.796;9.796;2023-02-26T11:35:01;1.80;99.90
6174;DHT22;3120;48.796;9.796;2023-02-26T11:37:34;1.70;1.00
6174;DHT22;3120;48.796;9.796;2023-02-26T11:42:37;1.80;1.00
6174;DHT22;3120;48.796;9.796;2023-02-26T11:45:06;1.70;99.90
6174;DHT22;3120;48.796;9.796;2023-02-26T11:47:32;1.60;1.00
6174;DHT22;3120;48.796;9.796;2023-02-26T11:50:09;1.50;56.60
6174;DHT22;3120;48.796;9.796;2023-02-26T11:52:53;1.50;99.90
6174;DHT22;3120;48.796;9.796;2023-02-26T11:55:32;1.40;1.00
6174;DHT22;3120;48.796;9.796;2023-02-26T11:57:57;2.70;1.00
6174;DHT22;3120;48.796;9.796;2023-02-26T12:00:30;1.70;1.00
6174;DHT22;3120;48.796;9.796;2023-02-26T12:03:13;1.80;1.00
6174;DHT22;3120;48.796;9.796;2023-02-26T12:06:00;1.90;99.90
6174;DHT22;3120;48.796;9.796;2023-02-26T12:08:36;1.70;99.90
6174;DHT22;3120;48.796;9.796;2023-02-26T12:14:19;1.70;1.00
6174;DHT22;3120;48.796;9.796;2023-02-26T12:34:05;2.00;1.00
6174;DHT22;3120;48.796;9.796;2023-02-26T12:42:32;1.80;1.00
6174;DHT22;3120;48.796;9.796;2023-02-26T12:51:01;1.90;1.00
6174;DHT22;3120;48.796;9.796;2023-02-26T12:54:13;1.80;99.90
6174;DHT22;3120;48.796;9.796;2023-02-26T13:24:59;2.60;1.00
6174;DHT22;3120;48.796;9.796;2023-02-26T13:27:36;2.30;1.00
6174;DHT22;3120;48.796;9.796;2023-02-26T13:32:40;2.40;1.00
6174;DHT22;3120;48.796;9.796;2023-02-26T13:39:26;2.50;1.00
6174;DHT22;3120;48.796;9.796;2023-02-26T13:53:31;2.10;99.90
6174;DHT22;3120;48.796;9.796;2023-02-26T14:09:44;2.50;1.00
6174;DHT22;3120;48.796;9.796;2023-02-26T14:17:48;2.30;37.20
6174;DHT22;3120;48.796;9.796;2023-02-26T14:20:25;2.30;1.00
6174;DHT22;3120;48.796;9.796;2023-02-26T14:23:29;2.30;99.90
6174;DHT22;3120;48.796;9.796;2023-02-26T14:26:08;2.30;91.00
6174;DHT22;3120;48.796;9.796;2023-02-26T14:28:53;2.60;99.90
6174;DHT22;3120;48.796;9.796;2023-02-26T14:31:25;2.40;1.00
6174;DHT22;3120;48.796;9.796;2023-02-26T14:41:45;1.80;1.00
6174;DHT22;3120;48.796;9.796;2023-02-26T14:44:24;1.50;99.90
6174;DHT22;3120;48.796;9.796;2023-02-26T14:46:53;1.90;1.00
6174;DHT22;3120;48.796;9.796;2023-02-26T14:49:32;1.00;1.00
6174;DHT22;3120;48.796;9.796;2023-02-26T15:06:49;2.00;1.00
6174;DHT22;3120;48.796;9.796;2023-02-26T15:21:11;1.30;99.90
6174;DHT22;3120;48.796;9.796;2023-02-26T15:23:46;1.30;99.90
6174;DHT22;3120;48.796;9.796;2023-02-26T15:26:28;1.40;99.90
6174;DHT22;3120;48.796;9.796;2023-02-26T15:28:56;1.50;99.90
6174;DHT22;3120;48.796;9.796;2023-02-26T15:31:43;1.60;1.00
6174;DHT22;3120;48.796;9.796;2023-02-26T15:34:14;1.60;99.90
6174;DHT22;3120;48.796;9.796;2023-02-26T15:37:17;1.60;1.00
6174;DHT22;3120;48.796;9.796;2023-02-26T15:39:50;1.70;18.10
6174;DHT22;3120;48.796;9.796;2023-02-26T15:42:18;1.80;24.30
6174;DHT22;3120;48.796;9.796;2023-02-26T15:44:45;1.80;99.90
6174;DHT22;3120;48.796;9.796;2023-02-26T15:47:14;1.90;99.90
6174;DHT22;3120;48.796;9.796;2023-02-26T15:49:43;1.90;1.00
6174;DHT22;3120;48.796;9.796;2023-02-26T15:52:22;1.90;1.00
6174;DHT22;3120;48.796;9.796;2023-02-26T15:54:59;2.70;86.40
6174;DHT22;3120;48.796;9.796;2023-02-26T15:57:26;1.90;1.00
6174;DHT22;3120;48.796;9.796;2023-02-26T15:59:59;1.90;1.00
6174;DHT22;3120;48.796;9.796;2023-02-26T16:02:28;1.90;80.50
6174;DHT22;3120;48.796;9.796;2023-02-26T16:04:54;1.90;1.00
6174;DHT22;3120;48.796;9.796;2023-02-26T16:07:20;1.90;1.00
6174;DHT22;3120;48.796;9.796;2023-02-26T16:09:48;1.80;1.00
6174;DHT22;3120;48.796;9.796;2023-02-26T16:12:31;1.80;1.00
6174;DHT22;3120;48.796;9.796;2023-02-26T16:15:02;1.70;1.00
6174;DHT22;3120;48.796;9.796;2023-02-26T16:17:31;1.70;1.00
6174;DHT22;3120;48.796;9.796;2023-02-26T16:20:01;1.60;1.00
6174;DHT22;3120;48.796;9.796;2023-02-26T16:22:36;1.60;1.00
6174;DHT22;3120;48.796;9.796;2023-02-26T16:25:07;1.60;1.00
6174;DHT22;3120;48.796;9.796;2023-02-26T16:27:34;1.60;1.00
6174;DHT22;3120;48.796;9.796;2023-02-26T16:30:02;1.60;1.00
6174;DHT22;3120;48.796;9.796;2023-02-26T16:32:32;1.60;1.00
6174;DHT22;3120;48.796;9.796;2023-02-26T16:35:16;2.10;1.00
6174;DHT22;3120;48.796;9.796;2023-02-26T16:37:46;1.50;59.40
6174;DHT22;3120;48.796;9.796;2023-02-26T16:40:33;2.10;1.00
6174;DHT22;3120;48.796;9.796;2023-02-26T16:43:03;1.50;1.00
6174;DHT22;3120;48.796;9.796;2023-02-26T16:48:30;1.50;1.00
6174;DHT22;3120;48.796;9.796;2023-02-26T16:51:12;1.40;1.00
6174;DHT22;3120;48.796;9.796;2023-02-26T16:53:46;1.50;1.00
6174;DHT22;3120;48.796;9.796;2023-02-26T16:56:16;1.50;1.00
6174;DHT22;3120;48.796;9.796;2023-02-26T16:58:50;1.50;1.00
6174;DHT22;3120;48.796;9.796;2023-02-26T17:01:21;1.40;1.00
6174;DHT22;3120;48.796;9.796;2023-02-26T17:03:49;1.60;1.00
6174;DHT22;3120;48.796;9.796;2023-02-26T17:06:21;1.40;1.00
6174;DHT22;3120;48.796;9.796;2023-02-26T17:08:52;1.40;1.00
6174;DHT22;3120;48.796;9.796;2023-02-26T17:11:38;1.40;1.00
6174;DHT22;3120;48.796;9.796;2023-02-26T17:14:23;0.40;1.00
6174;DHT22;3120;48.796;9.796;2023-02-26T17:16:51;1.30;1.00
6174;DHT22;3120;48.796;9.796;2023-02-26T17:19:17;1.40;1.00
6174;DHT22;3120;48.796;9.796;2023-02-26T17:21:48;1.30;1.00
6174;DHT22;3120;48.796;9.796;2023-02-26T17:24:18;1.30;1.00
6174;DHT22;3120;48.796;9.796;2023-02-26T17:26:45;1.30;1.00
6174;DHT22;3120;48.796;9.796;2023-02-26T17:29:20;1.20;1.00
6174;DHT22;3120;48.796;9.796;2023-02-26T17:31:48;1.20;1.00
6174;DHT22;3120;48.796;9.796;2023-02-26T17:34:14;1.20;1.00
6174;DHT22;3120;48.796;9.796;2023-02-26T17:36:39;1.20;1.00
6174;DHT22;3120;48.796;9.796;2023-02-26T17:39:06;1.20;1.00
6174;DHT22;3120;48.796;9.796;2023-02-26T17:41:31;1.20;1.00
6174;DHT22;3120;48.796;9.796;2023-02-26T17:43:58;1.10;1.00
6174;DHT22;3120;48.796;9.796;2023-02-26T17:46:24;1.10;1.00
6174;DHT22;3120;48.796;9.796;2023-02-26T17:48:50;1.10;1.00
6174;DHT22;3120;48.796;9.796;2023-02-26T17:51:16;1.10;1.00
6174;DHT22;3120;48.796;9.796;2023-02-26T17:53:41;1.10;1.00
6174;DHT22;3120;48.796;9.796;2023-02-26T17:56:18;1.10;1.00
6174;DHT22;3120;48.796;9.796;2023-02-26T17:58:45;2.10;1.00
6174;DHT22;3120;48.796;9.796;2023-02-26T18:01:11;1.10;67.50
6174;DHT22;3120;48.796;9.796;2023-02-26T18:03:36;1.20;1.00
6174;DHT22;3120;48.796;9.796;2023-02-26T18:06:06;1.20;1.00
6174;DHT22;3120;48.796;9.796;2023-02-26T18:08:33;1.20;1.00
6174;DHT22;3120;48.796;9.796;2023-02-26T18:10:59;1.10;99.90
6174;DHT22;3120;48.796;9.796;2023-02-26T18:13:26;1.10;1.00
6174;DHT22;3120;48.796;9.796;2023-02-26T18:15:54;1.10;1.00
6174;DHT22;3120;48.796;9.796;2023-02-26T18:18:21;1.10;1.00
6174;DHT22;3120;48.796;9.796;2023-02-26T18:20:48;1.00;1.00
6174;DHT22;3120;48.796;9.796;2023-02-26T18:23:13;1.00;1.00
6174;DHT22;3120;48.796;9.796;2023-02-26T18:25:46;1.00;73.60
6174;DHT22;3120;48.796;9.796;2023-02-26T18:28:16;0.90;27.20
6174;DHT22;3120;48.796;9.796;2023-02-26T18:30:43;0.90;1.00
6174;DHT22;3120;48.796;9.796;2023-02-26T18:33:11;0.80;1.00
6174;DHT22;3120;48.796;9.796;2023-02-26T18:35:52;0.70;1.00
6174;DHT22;3120;48.796;9.796;2023-02-26T18:38:22;0.70;1.00
6174;DHT22;3120;48.796;9.796;2023-02-26T18:40:49;0.70;1.00
6174;DHT22;3120;48.796;9.796;2023-02-26T18:43:16;0.70;1.00
6174;DHT22;3120;48.796;9.796;2023-02-26T18:45:44;1.00;1.00
6174;DHT22;3120;48.796;9.796;2023-02-26T18:48:13;0.60;1.00
6174;DHT22;3120;48.796;9.796;2023-02-26T18:50:41;0.60;1.00
6174;DHT22;3120;48.796;9.796;2023-02-26T18:53:07;0.50;1.00
6174;DHT22;3120;48.796;9.796;2023-02-26T18:55:33;0.50;99.90
6174;DHT22;3120;48.796;9.796;2023-02-26T18:57:59;0.50;1.00
6174;DHT22;3120;48.796;9.796;2023-02-26T19:00:25;0.50;1.00
6174;DHT22;3120;48.796;9.796;2023-02-26T19:02:55;0.40;18.60
6174;DHT22;3120;48.796;9.796;2023-02-26T19:05:21;0.50;19.70
6174;DHT22;3120;48.796;9.796;2023-02-26T19:07:52;0.40;99.90
6174;DHT22;3120;48.796;9.796;2023-02-26T19:10:18;0.50;63.80
6174;DHT22;3120;48.796;9.796;2023-02-26T19:12:44;0.50;99.90
6174;DHT22;3120;48.796;9.796;2023-02-26T19:15:11;0.50;99.90
6174;DHT22;3120;48.796;9.796;2023-02-26T19:17:40;0.50;79.70
6174;DHT22;3120;48.796;9.796;2023-02-26T19:20:08;0.40;99.90
6174;DHT22;3120;48.796;9.796;2023-02-26T19:22:34;0.30;99.90
6174;DHT22;3120;48.796;9.796;2023-02-26T19:24:59;0.30;99.90
6174;DHT22;3120;48.796;9.796;2023-02-26T19:27:25;0.30;99.90
6174;DHT22;3120;48.796;9.796;2023-02-26T19:29:51;0.30;99.90
6174;DHT22;3120;48.796;9.796;2023-02-26T19:32:16;0.20;61.30
6174;DHT22;3120;48.796;9.796;2023-02-26T19:34:42;0.20;99.90
6174;DHT22;3120;48.796;9.796;2023-02-26T19:37:08;0.10;99.90
6174;DHT22;3120;48.796;9.796;2023-02-26T19:39:35;0.10;99.90
6174;DHT22;3120;48.796;9.796;2023-02-26T19:42:01;0.10;99.90
6174;DHT22;3120;48.796;9.796;2023-02-26T19:44:26;0.10;99.90
6174;DHT22;3120;48.796;9.796;2023-02-26T19:46:53;0.10;99.90
6174;DHT22;3120;48.796;9.796;2023-02-26T19:49:18;0.00;99.90
6174;DHT22;3120;48.796;9.796;2023-02-26T19:51:44;0.00;99.90
6174;DHT22;3120;48.796;9.796;2023-02-26T19:54:10;0.00;99.90
6174;DHT22;3120;48.796;9.796;2023-02-26T19:56:41;0.10;99.90
6174;DHT22;3120;48.796;9.796;2023-02-26T19:59:07;0.00;1.00
6174;DHT22;3120;48.796;9.796;2023-02-26T20:01:33;-0.20;99.90
6174;DHT22;3120;48.796;9.796;2023-02-26T20:03:59;0.50;1.00
6174;DHT22;3120;48.796;9.796;2023-02-26T20:06:25;0.60;4.80
6174;DHT22;3120;48.796;9.796;2023-02-26T20:08:51;-0.20;1.00
6174;DHT22;3120;48.796;9.796;2023-02-26T20:11:17;-0.30;99.90
6174;DHT22;3120;48.796;9.796;2023-02-26T20:13:46;-0.20;7.20
6174;DHT22;3120;48.796;9.796;2023-02-26T20:16:12;-0.30;99.90
6174;DHT22;3120;48.796;9.796;2023-02-26T20:18:38;-0.30;99.90
6174;DHT22;3120;48.796;9.796;2023-02-26T20:21:07;-0.30;99.90
6174;DHT22;3120;48.796;9.796;2023-02-26T20:23:34;-0.30;70.20
6174;DHT22;3120;48.796;9.796;2023-02-26T20:26:06;-0.30;1.00
6174;DHT22;3120;48.796;9.796;2023-02-26T20:28:33;-0.30;99.90
6174;DHT22;3120;48.796;9.796;2023-02-26T20:30:59;-0.40;99.90
6174;DHT22;3120;48.796;9.796;2023-02-26T20:33:26;-0.50;1.00
6174;DHT22;3120;48.796;9.796;2023-02-26T20:35:52;-0.50;1.00
6174;DHT22;3120;48.796;9.796;2023-02-26T20:38:20;-0.40;99.90
6174;DHT22;3120;48.796;9.796;2023-02-26T20:40:47;-0.50;1.00
6174;DHT22;3120;48.796;9.796;2023-02-26T20:43:13;-0.50;1.00
6174;DHT22;3120;48.796;9.796;2023-02-26T20:45:40;-0.60;1.00
6174;DHT22;3120;48.796;9.796;2023-02-26T20:48:07;-0.50;1.00
6174;DHT22;3120;48.796;9.796;2023-02-26T20:50:33;-0.60;1.00
6174;DHT22;3120;48.796;9.796;2023-02-26T20:53:01;-0.60;99.90
6174;DHT22;3120;48.796;9.796;2023-02-26T20:55:27;-0.50;70.60
6174;DHT22;3120;48.796;9.796;2023-02-26T20:57:52;-0.30;1.00
6174;DHT22;3120;48.796;9.796;2023-02-26T21:00:19;-0.60;99.90
6174;DHT22;3120;48.796;9.796;2023-02-26T21:02:45;-0.60;99.90
6174;DHT22;3120;48.796;9.796;2023-02-26T21:05:13;-0.50;99.90